sensor_id;sensor_type;location;lat;lon;timestamp;pressure;altitude;pressure_sealevel;temperature;humidity
54666;BME280;40566;50.006;36.180;2023-03-13T00:01:45;99434.34;;;-0.24;73.27
54666;BME280;40566;50.006;36.180;2023-03-13T00:06:46;99436.03;;;-0.26;73.34
54666;BME280;40566;50.006;36.180;2023-03-13T00:11:47;99440.22;;;-0.31;73.52
54666;BME280;40566;50.006;36.180;2023-03-13T00:16:47;99435.16;;;-0.31;73.45
54666;BME280;40566;50.006;36.180;2023-03-13T00:21:48;99442.78;;;-0.31;73.51
54666;BME280;40566;50.006;36.180;2023-03-13T00:26:48;99458.78;;;-0.37;73.58
54666;BME280;40566;50.006;36.180;2023-03-13T00:31:49;99475.72;;;-0.37;73.65
54666;BME280;40566;50.006;36.180;2023-03-13T00:36:49;99475.72;;;-0.37;73.41
54666;BME280;40566;50.006;36.180;2023-03-13T00:41:50;99485.91;;;-0.37;73.40
54666;BME280;40566;50.006;36.180;2023-03-13T00:46:50;99480.72;;;-0.44;73.56
54666;BME280;40566;50.006;36.180;2023-03-13T00:51:51;99493.47;;;-0.41;73.38
54666;BME280;40566;50.006;36.180;2023-03-13T00:56:52;99490.03;;;-0.44;73.39
54666;BME280;40566;50.006;36.180;2023-03-13T01:01:52;99496.75;;;-0.48;73.59
54666;BME280;40566;50.006;36.180;2023-03-13T01:06:53;99501.88;;;-0.45;73.31
54666;BME280;40566;50.006;36.180;2023-03-13T01:11:53;99513.72;;;-0.47;73.39
54666;BME280;40566;50.006;36.180;2023-03-13T01:16:54;99523.81;;;-0.53;73.71
54666;BME280;40566;50.006;36.180;2023-03-13T01:21:54;99536.50;;;-0.53;73.57
54666;BME280;40566;50.006;36.180;2023-03-13T01:26:55;99544.13;;;-0.53;73.49
54666;BME280;40566;50.006;36.180;2023-03-13T01:31:55;99555.97;;;-0.53;73.53
54666;BME280;40566;50.006;36.180;2023-03-13T01:36:56;99578.75;;;-0.58;73.64
54666;BME280;40566;50.006;36.180;2023-03-13T01:41:56;99581.28;;;-0.61;73.56
54666;BME280;40566;50.006;36.180;2023-03-13T01:46:57;99586.34;;;-0.61;73.60
54666;BME280;40566;50.006;36.180;2023-03-13T01:52:04;99604.16;;;-0.58;73.50
54666;BME280;40566;50.006;36.180;2023-03-13T01:57:17;99613.41;;;-0.62;73.54
54666;BME280;40566;50.006;36.180;2023-03-13T02:02:20;99626.13;;;-0.63;73.46
54666;BME280;40566;50.006;36.180;2023-03-13T02:07:31;99635.50;;;-0.59;73.62
54666;BME280;40566;50.006;36.180;2023-03-13T02:12:36;99636.38;;;-0.57;73.38
54666;BME280;40566;50.006;36.180;2023-03-13T02:17:38;99630.47;;;-0.54;73.27
54666;BME280;40566;50.006;36.180;2023-03-13T02:28:00;99652.59;;;-0.47;72.99
54666;BME280;40566;50.006;36.180;2023-03-13T02:33:03;99662.00;;;-0.40;72.94
54666;BME280;40566;50.006;36.180;2023-03-13T02:38:07;99686.84;;;-0.24;72.41
54666;BME280;40566;50.006;36.180;2023-03-13T02:43:13;99687.00;;;-0.13;72.15
54666;BME280;40566;50.006;36.180;2023-03-13T02:48:14;99701.41;;;-0.10;72.16
54666;BME280;40566;50.006;36.180;2023-03-13T02:53:15;99714.31;;;0.01;72.11
54666;BME280;40566;50.006;36.180;2023-03-13T02:58:15;99714.34;;;0.05;71.89
54666;BME280;40566;50.006;36.180;2023-03-13T03:03:16;99723.75;;;0.11;71.89
54666;BME280;40566;50.006;36.180;2023-03-13T03:08:17;99728.75;;;0.03;71.74
54666;BME280;40566;50.006;36.180;2023-03-13T03:13:17;99742.31;;;0.04;71.72
54666;BME280;40566;50.006;36.180;2023-03-13T03:18:18;99748.25;;;0.03;71.70
54666;BME280;40566;50.006;36.180;2023-03-13T03:23:19;99756.81;;;0.11;71.66
54666;BME280;40566;50.006;36.180;2023-03-13T03:28:19;99768.75;;;0.15;71.49
54666;BME280;40566;50.006;36.180;2023-03-13T03:33:21;99778.06;;;0.14;71.37
54666;BME280;40566;50.006;36.180;2023-03-13T03:38:21;99792.41;;;0.09;71.35
54666;BME280;40566;50.006;36.180;2023-03-13T03:43:22;99799.91;;;0.00;71.45
54666;BME280;40566;50.006;36.180;2023-03-13T03:48:22;99799.09;;;0.03;71.29
54666;BME280;40566;50.006;36.180;2023-03-13T03:53:23;99814.47;;;0.10;71.01
54666;BME280;40566;50.006;36.180;2023-03-13T03:58:24;99824.66;;;0.12;70.88
54666;BME280;40566;50.006;36.180;2023-03-13T04:03:25;99825.47;;;0.09;70.47
54666;BME280;40566;50.006;36.180;2023-03-13T04:08:26;99839.22;;;0.21;70.74
54666;BME280;40566;50.006;36.180;2023-03-13T04:13:26;99845.22;;;0.27;70.51
54666;BME280;40566;50.006;36.180;2023-03-13T04:18:27;99861.38;;;0.29;70.38
54666;BME280;40566;50.006;36.180;2023-03-13T04:23:27;99867.31;;;0.28;70.36
54666;BME280;40566;50.006;36.180;2023-03-13T04:28:28;99866.53;;;0.32;70.30
54666;BME280;40566;50.006;36.180;2023-03-13T04:33:29;99880.78;;;0.23;70.05
54666;BME280;40566;50.006;36.180;2023-03-13T04:38:29;99897.06;;;0.32;70.25
54666;BME280;40566;50.006;36.180;2023-03-13T04:43:30;99911.47;;;0.33;70.02
54666;BME280;40566;50.006;36.180;2023-03-13T04:48:30;99919.91;;;0.31;70.17
54666;BME280;40566;50.006;36.180;2023-03-13T04:53:31;99923.38;;;0.34;69.99
54666;BME280;40566;50.006;36.180;2023-03-13T04:58:31;99942.13;;;0.39;70.02
54666;BME280;40566;50.006;36.180;2023-03-13T05:03:32;99955.06;;;0.55;69.95
54666;BME280;40566;50.006;36.180;2023-03-13T05:08:33;99969.72;;;0.68;69.48
54666;BME280;40566;50.006;36.180;2023-03-13T05:13:35;99977.31;;;0.67;69.55
54666;BME280;40566;50.006;36.180;2023-03-13T05:18:36;99982.41;;;0.67;69.81
54666;BME280;40566;50.006;36.180;2023-03-13T05:23:38;99998.50;;;0.64;69.93
54666;BME280;40566;50.006;36.180;2023-03-13T05:28:39;99996.19;;;0.78;69.60
54666;BME280;40566;50.006;36.180;2023-03-13T05:33:39;100011.47;;;0.78;69.43
54666;BME280;40566;50.006;36.180;2023-03-13T05:38:40;100027.75;;;0.88;69.13
54666;BME280;40566;50.006;36.180;2023-03-13T05:43:40;100039.63;;;0.89;69.12
54666;BME280;40566;50.006;36.180;2023-03-13T05:48:41;100033.31;;;0.67;69.32
54666;BME280;40566;50.006;36.180;2023-03-13T05:53:41;100046.94;;;0.69;69.14
54666;BME280;40566;50.006;36.180;2023-03-13T05:58:42;100054.56;;;0.67;69.26
54666;BME280;40566;50.006;36.180;2023-03-13T06:03:42;100072.50;;;0.75;69.07
54666;BME280;40566;50.006;36.180;2023-03-13T06:08:43;100076.59;;;0.67;69.11
54666;BME280;40566;50.006;36.180;2023-03-13T06:13:44;100084.94;;;0.58;69.10
54666;BME280;40566;50.006;36.180;2023-03-13T06:18:45;100079.78;;;0.55;69.31
54666;BME280;40566;50.006;36.180;2023-03-13T06:23:45;100097.72;;;0.59;69.20
54666;BME280;40566;50.006;36.180;2023-03-13T06:28:47;100098.56;;;0.60;69.12
54666;BME280;40566;50.006;36.180;2023-03-13T06:33:52;100097.03;;;0.70;68.94
54666;BME280;40566;50.006;36.180;2023-03-13T06:38:52;100108.13;;;0.73;68.79
54666;BME280;40566;50.006;36.180;2023-03-13T06:43:53;100117.53;;;0.77;68.68
54666;BME280;40566;50.006;36.180;2023-03-13T06:48:54;100127.75;;;0.81;68.56
54666;BME280;40566;50.006;36.180;2023-03-13T06:53:54;100137.56;;;1.06;67.97
54666;BME280;40566;50.006;36.180;2023-03-13T06:58:55;100144.69;;;1.27;67.60
54666;BME280;40566;50.006;36.180;2023-03-13T07:03:55;100159.88;;;1.19;67.91
54666;BME280;40566;50.006;36.180;2023-03-13T07:08:56;100155.66;;;1.22;67.78
54666;BME280;40566;50.006;36.180;2023-03-13T07:13:56;100161.06;;;1.42;67.43
54666;BME280;40566;50.006;36.180;2023-03-13T07:19:00;100173.25;;;1.59;67.28
54666;BME280;40566;50.006;36.180;2023-03-13T07:24:01;100171.00;;;1.78;67.09
54666;BME280;40566;50.006;36.180;2023-03-13T07:29:02;100180.41;;;1.84;66.72
54666;BME280;40566;50.006;36.180;2023-03-13T07:34:03;100184.50;;;1.72;66.97
54666;BME280;40566;50.006;36.180;2023-03-13T07:39:03;100212.09;;;1.98;66.57
54666;BME280;40566;50.006;36.180;2023-03-13T07:44:04;100203.72;;;2.08;65.90
54666;BME280;40566;50.006;36.180;2023-03-13T07:49:05;100207.84;;;1.98;66.32
54666;BME280;40566;50.006;36.180;2023-03-13T07:54:05;100205.59;;;2.20;65.52
54666;BME280;40566;50.006;36.180;2023-03-13T07:59:06;100210.72;;;2.23;65.66
54666;BME280;40566;50.006;36.180;2023-03-13T08:04:11;100214.47;;;2.50;65.00
54666;BME280;40566;50.006;36.180;2023-03-13T08:09:12;100229.34;;;2.83;64.46
54666;BME280;40566;50.006;36.180;2023-03-13T08:14:13;100226.63;;;2.69;64.66
54666;BME280;40566;50.006;36.180;2023-03-13T08:19:13;100236.81;;;2.65;64.46
54666;BME280;40566;50.006;36.180;2023-03-13T08:24:14;100242.75;;;2.65;64.78
54666;BME280;40566;50.006;36.180;2023-03-13T08:29:14;100249.06;;;2.95;64.04
54666;BME280;40566;50.006;36.180;2023-03-13T08:34:16;100251.13;;;3.27;63.30
54666;BME280;40566;50.006;36.180;2023-03-13T08:39:18;100262.03;;;3.13;63.46
54666;BME280;40566;50.006;36.180;2023-03-13T08:44:19;100261.41;;;3.34;63.04
54666;BME280;40566;50.006;36.180;2023-03-13T08:49:20;100254.63;;;3.36;63.04
54666;BME280;40566;50.006;36.180;2023-03-13T08:54:20;100261.59;;;3.53;62.53
54666;BME280;40566;50.006;36.180;2023-03-13T08:59:21;100271.03;;;3.63;62.28
54666;BME280;40566;50.006;36.180;2023-03-13T09:04:21;100266.81;;;3.65;61.95
54666;BME280;40566;50.006;36.180;2023-03-13T09:09:22;100272.06;;;3.81;61.16
54666;BME280;40566;50.006;36.180;2023-03-13T09:14:23;100276.38;;;3.88;60.64
54666;BME280;40566;50.006;36.180;2023-03-13T09:19:23;100276.25;;;5.27;58.61
54666;BME280;40566;50.006;36.180;2023-03-13T09:24:24;100279.28;;;11.94;42.19
54666;BME280;40566;50.006;36.180;2023-03-13T09:29:25;100271.19;;;17.91;33.21
54666;BME280;40566;50.006;36.180;2023-03-13T09:34:25;100265.84;;;21.61;28.60
54666;BME280;40566;50.006;36.180;2023-03-13T09:39:27;100278.03;;;21.49;28.86
54666;BME280;40566;50.006;36.180;2023-03-13T09:44:31;100269.75;;;21.26;29.06
54666;BME280;40566;50.006;36.180;2023-03-13T09:49:40;100278.59;;;19.80;31.17
54666;BME280;40566;50.006;36.180;2023-03-13T09:54:52;100279.50;;;21.53;29.56
54666;BME280;40566;50.006;36.180;2023-03-13T10:00:13;100272.19;;;22.24;28.40
54666;BME280;40566;50.006;36.180;2023-03-13T10:10:44;100261.56;;;21.72;28.47
54666;BME280;40566;50.006;36.180;2023-03-13T10:16:06;100267.47;;;19.29;31.77
54666;BME280;40566;50.006;36.180;2023-03-13T10:21:20;100276.03;;;21.92;28.24
54666;BME280;40566;50.006;36.180;2023-03-13T10:26:24;100264.91;;;22.27;26.07
54666;BME280;40566;50.006;36.180;2023-03-13T10:31:34;100271.69;;;18.33;30.49
54666;BME280;40566;50.006;36.180;2023-03-13T10:36:44;100273.25;;;13.49;37.06
54666;BME280;40566;50.006;36.180;2023-03-13T10:41:48;100263.22;;;14.42;34.64
54666;BME280;40566;50.006;36.180;2023-03-13T10:46:50;100274.13;;;15.46;32.83
54666;BME280;40566;50.006;36.180;2023-03-13T10:51:52;100257.25;;;16.59;30.99
54666;BME280;40566;50.006;36.180;2023-03-13T10:57:35;100263.50;;;17.14;30.66
54666;BME280;40566;50.006;36.180;2023-03-13T11:02:37;100262.06;;;20.82;26.07
54666;BME280;40566;50.006;36.180;2023-03-13T11:07:38;100264.09;;;22.40;24.83
54666;BME280;40566;50.006;36.180;2023-03-13T11:12:48;100267.09;;;20.27;26.24
54666;BME280;40566;50.006;36.180;2023-03-13T11:34:02;100262.47;;;20.75;27.18
54666;BME280;40566;50.006;36.180;2023-03-13T11:44:58;100279.75;;;20.20;27.12
54666;BME280;40566;50.006;36.180;2023-03-13T11:55:48;100278.56;;;19.96;26.92
54666;BME280;40566;50.006;36.180;2023-03-13T12:01:13;100276.94;;;16.66;29.91
54666;BME280;40566;50.006;36.180;2023-03-13T12:06:37;100280.34;;;12.83;34.38
54666;BME280;40566;50.006;36.180;2023-03-13T12:11:44;100294.84;;;10.74;36.40
54666;BME280;40566;50.006;36.180;2023-03-13T12:16:50;100303.09;;;9.40;37.32
54666;BME280;40566;50.006;36.180;2023-03-13T12:21:55;100285.88;;;8.74;37.95
54666;BME280;40566;50.006;36.180;2023-03-13T12:27:00;100291.50;;;8.28;38.26
54666;BME280;40566;50.006;36.180;2023-03-13T12:32:13;100312.34;;;8.00;38.91
54666;BME280;40566;50.006;36.180;2023-03-13T12:42:57;100294.06;;;7.04;40.51
54666;BME280;40566;50.006;36.180;2023-03-13T12:53:33;100306.16;;;6.84;40.44
54666;BME280;40566;50.006;36.180;2023-03-13T13:03:54;100301.16;;;6.34;41.39
54666;BME280;40566;50.006;36.180;2023-03-13T13:09:06;100295.13;;;6.37;41.54
54666;BME280;40566;50.006;36.180;2023-03-13T13:24:49;100302.88;;;6.26;41.49
54666;BME280;40566;50.006;36.180;2023-03-13T13:29:53;100300.31;;;6.02;42.18
54666;BME280;40566;50.006;36.180;2023-03-13T13:35:45;100304.59;;;6.06;41.98
54666;BME280;40566;50.006;36.180;2023-03-13T13:40:30;100298.63;;;6.01;41.57
54666;BME280;40566;50.006;36.180;2023-03-13T13:45:35;100304.53;;;5.78;42.14
54666;BME280;40566;50.006;36.180;2023-03-13T13:50:36;100305.41;;;5.71;42.55
54666;BME280;40566;50.006;36.180;2023-03-13T14:00:44;100304.53;;;5.53;42.64
54666;BME280;40566;50.006;36.180;2023-03-13T14:05:50;100297.63;;;5.37;43.09
54666;BME280;40566;50.006;36.180;2023-03-13T14:16:24;100299.28;;;5.10;43.44
54666;BME280;40566;50.006;36.180;2023-03-13T14:21:25;100305.25;;;5.05;43.56
54666;BME280;40566;50.006;36.180;2023-03-13T14:26:27;100299.28;;;5.10;43.39
54666;BME280;40566;50.006;36.180;2023-03-13T14:31:32;100295.00;;;5.02;43.60
54666;BME280;40566;50.006;36.180;2023-03-13T14:36:52;100301.78;;;4.95;43.70
54666;BME280;40566;50.006;36.180;2023-03-13T14:41:53;100309.47;;;4.92;43.89
54666;BME280;40566;50.006;36.180;2023-03-13T14:46:57;100295.78;;;4.87;43.88
54666;BME280;40566;50.006;36.180;2023-03-13T14:52:32;100306.84;;;4.80;44.19
54666;BME280;40566;50.006;36.180;2023-03-13T14:57:26;100309.34;;;4.72;44.32
54666;BME280;40566;50.006;36.180;2023-03-13T15:02:28;100322.16;;;4.64;44.71
54666;BME280;40566;50.006;36.180;2023-03-13T15:07:46;100320.41;;;4.59;44.79
54666;BME280;40566;50.006;36.180;2023-03-13T15:12:48;100322.91;;;4.51;44.84
54666;BME280;40566;50.006;36.180;2023-03-13T15:17:49;100329.66;;;4.36;44.83
54666;BME280;40566;50.006;36.180;2023-03-13T15:22:49;100347.50;;;4.26;45.22
54666;BME280;40566;50.006;36.180;2023-03-13T15:27:50;100356.81;;;4.17;45.34
54666;BME280;40566;50.006;36.180;2023-03-13T15:32:51;100366.16;;;4.11;45.38
54666;BME280;40566;50.006;36.180;2023-03-13T15:37:51;100378.09;;;4.07;45.57
54666;BME280;40566;50.006;36.180;2023-03-13T15:42:53;100380.50;;;3.93;45.65
54666;BME280;40566;50.006;36.180;2023-03-13T15:47:54;100377.84;;;3.81;45.87
54666;BME280;40566;50.006;36.180;2023-03-13T15:52:55;100382.84;;;3.72;46.17
54666;BME280;40566;50.006;36.180;2023-03-13T15:57:56;100392.16;;;3.67;46.26
54666;BME280;40566;50.006;36.180;2023-03-13T16:02:56;100380.97;;;3.54;46.51
54666;BME280;40566;50.006;36.180;2023-03-13T16:07:58;100384.25;;;3.42;46.88
54666;BME280;40566;50.006;36.180;2023-03-13T16:12:59;100378.13;;;3.31;47.01
54666;BME280;40566;50.006;36.180;2023-03-13T16:18:00;100383.94;;;3.19;47.44
54666;BME280;40566;50.006;36.180;2023-03-13T16:23:01;100393.28;;;3.15;47.42
54666;BME280;40566;50.006;36.180;2023-03-13T16:28:03;100392.31;;;3.07;47.47
54666;BME280;40566;50.006;36.180;2023-03-13T16:33:04;100384.63;;;3.04;47.54
54666;BME280;40566;50.006;36.180;2023-03-13T16:38:04;100397.25;;;2.93;47.73
54666;BME280;40566;50.006;36.180;2023-03-13T16:43:10;100398.06;;;2.91;47.88
54666;BME280;40566;50.006;36.180;2023-03-13T16:48:15;100402.22;;;2.84;48.04
54666;BME280;40566;50.006;36.180;2023-03-13T16:53:17;100422.59;;;2.80;48.40
54666;BME280;40566;50.006;36.180;2023-03-13T16:58:18;100416.56;;;2.74;48.33
54666;BME280;40566;50.006;36.180;2023-03-13T17:03:19;100424.13;;;2.67;48.41
54666;BME280;40566;50.006;36.180;2023-03-13T17:08:19;100406.00;;;2.51;48.81
54666;BME280;40566;50.006;36.180;2023-03-13T17:13:20;100419.56;;;2.49;48.91
54666;BME280;40566;50.006;36.180;2023-03-13T17:18:23;100415.22;;;2.42;49.10
54666;BME280;40566;50.006;36.180;2023-03-13T17:23:23;100410.91;;;2.37;49.37
54666;BME280;40566;50.006;36.180;2023-03-13T17:28:24;100410.84;;;2.34;49.51
54666;BME280;40566;50.006;36.180;2023-03-13T17:33:24;100423.53;;;2.30;49.59
54666;BME280;40566;50.006;36.180;2023-03-13T17:38:25;100420.91;;;2.25;49.72
54666;BME280;40566;50.006;36.180;2023-03-13T17:43:25;100419.06;;;2.18;49.98
54666;BME280;40566;50.006;36.180;2023-03-13T17:48:26;100427.44;;;2.11;49.96
54666;BME280;40566;50.006;36.180;2023-03-13T17:53:27;100426.50;;;2.04;50.20
54666;BME280;40566;50.006;36.180;2023-03-13T17:58:27;100427.16;;;1.95;50.15
54666;BME280;40566;50.006;36.180;2023-03-13T18:03:28;100424.63;;;1.94;50.32
54666;BME280;40566;50.006;36.180;2023-03-13T18:08:28;100413.38;;;1.84;50.29
54666;BME280;40566;50.006;36.180;2023-03-13T18:13:29;100412.50;;;1.82;50.46
54666;BME280;40566;50.006;36.180;2023-03-13T18:18:29;100420.03;;;1.76;50.58
54666;BME280;40566;50.006;36.180;2023-03-13T18:23:30;100419.09;;;1.72;50.72
54666;BME280;40566;50.006;36.180;2023-03-13T18:28:31;100428.47;;;1.72;50.85
54666;BME280;40566;50.006;36.180;2023-03-13T18:33:31;100424.09;;;1.66;51.13
54666;BME280;40566;50.006;36.180;2023-03-13T18:38:32;100429.19;;;1.66;51.12
54666;BME280;40566;50.006;36.180;2023-03-13T18:43:32;100430.00;;;1.65;51.19
54666;BME280;40566;50.006;36.180;2023-03-13T18:48:33;100428.19;;;1.59;51.46
54666;BME280;40566;50.006;36.180;2023-03-13T18:53:34;100434.97;;;1.57;51.69
54666;BME280;40566;50.006;36.180;2023-03-13T18:58:35;100441.75;;;1.57;51.89
54666;BME280;40566;50.006;36.180;2023-03-13T19:03:36;100440.88;;;1.55;52.06
54666;BME280;40566;50.006;36.180;2023-03-13T19:08:36;100444.28;;;1.55;52.14
54666;BME280;40566;50.006;36.180;2023-03-13T19:13:37;100450.97;;;1.50;52.34
54666;BME280;40566;50.006;36.180;2023-03-13T19:18:38;100459.38;;;1.45;52.71
54666;BME280;40566;50.006;36.180;2023-03-13T19:23:38;100450.00;;;1.45;52.69
54666;BME280;40566;50.006;36.180;2023-03-13T19:28:39;100458.47;;;1.44;52.78
54666;BME280;40566;50.006;36.180;2023-03-13T19:33:41;100454.09;;;1.37;53.04
54666;BME280;40566;50.006;36.180;2023-03-13T19:38:42;100450.59;;;1.32;53.18
54666;BME280;40566;50.006;36.180;2023-03-13T19:43:43;100444.59;;;1.30;53.16
54666;BME280;40566;50.006;36.180;2023-03-13T19:48:45;100458.22;;;1.32;53.27
54666;BME280;40566;50.006;36.180;2023-03-13T19:53:45;100461.66;;;1.34;53.22
54666;BME280;40566;50.006;36.180;2023-03-13T19:58:48;100453.09;;;1.30;53.34
54666;BME280;40566;50.006;36.180;2023-03-13T20:03:49;100457.47;;;1.36;53.23
54666;BME280;40566;50.006;36.180;2023-03-13T20:08:59;100463.44;;;1.38;53.27
54666;BME280;40566;50.006;36.180;2023-03-13T20:14:00;100461.63;;;1.31;53.53
54666;BME280;40566;50.006;36.180;2023-03-13T20:19:01;100458.06;;;1.23;53.75
54666;BME280;40566;50.006;36.180;2023-03-13T20:24:02;100458.06;;;1.23;53.87
54666;BME280;40566;50.006;36.180;2023-03-13T20:29:03;100454.53;;;1.17;54.03
54666;BME280;40566;50.006;36.180;2023-03-13T20:34:04;100455.28;;;1.13;53.98
54666;BME280;40566;50.006;36.180;2023-03-13T20:39:04;100457.88;;;1.16;54.03
54666;BME280;40566;50.006;36.180;2023-03-13T20:44:05;100451.91;;;1.14;53.85
54666;BME280;40566;50.006;36.180;2023-03-13T20:49:05;100451.06;;;1.14;53.80
54666;BME280;40566;50.006;36.180;2023-03-13T20:54:06;100451.81;;;1.10;53.85
54666;BME280;40566;50.006;36.180;2023-03-13T20:59:08;100457.66;;;1.06;54.03
54666;BME280;40566;50.006;36.180;2023-03-13T21:04:09;100457.59;;;1.03;54.15
54666;BME280;40566;50.006;36.180;2023-03-13T21:09:09;100460.19;;;1.04;54.11
54666;BME280;40566;50.006;36.180;2023-03-13T21:14:10;100438.91;;;1.02;54.24
54666;BME280;40566;50.006;36.180;2023-03-13T21:19:10;100455.78;;;0.97;54.37
54666;BME280;40566;50.006;36.180;2023-03-13T21:24:11;100450.63;;;0.94;54.49
54666;BME280;40566;50.006;36.180;2023-03-13T21:29:13;100461.66;;;0.94;54.42
54666;BME280;40566;50.006;36.180;2023-03-13T21:34:13;100468.34;;;0.91;54.46
54666;BME280;40566;50.006;36.180;2023-03-13T21:39:14;100463.16;;;0.86;54.46
54666;BME280;40566;50.006;36.180;2023-03-13T21:44:15;100471.66;;;0.85;54.62
54666;BME280;40566;50.006;36.180;2023-03-13T21:49:18;100472.38;;;0.79;54.69
54666;BME280;40566;50.006;36.180;2023-03-13T21:54:19;100469.69;;;0.73;54.76
54666;BME280;40566;50.006;36.180;2023-03-13T21:59:20;100474.72;;;0.72;54.81
54666;BME280;40566;50.006;36.180;2023-03-13T22:04:25;100472.94;;;0.68;54.82
54666;BME280;40566;50.006;36.180;2023-03-13T22:09:26;100471.19;;;0.67;54.83
54666;BME280;40566;50.006;36.180;2023-03-13T22:14:26;100468.59;;;0.64;54.86
54666;BME280;40566;50.006;36.180;2023-03-13T22:19:27;100482.13;;;0.63;54.95
54666;BME280;40566;50.006;36.180;2023-03-13T22:24:28;100471.06;;;0.61;55.05
54666;BME280;40566;50.006;36.180;2023-03-13T22:29:28;100476.84;;;0.53;55.21
54666;BME280;40566;50.006;36.180;2023-03-13T22:34:31;100475.91;;;0.51;55.32
54666;BME280;40566;50.006;36.180;2023-03-13T22:39:31;100483.44;;;0.47;55.30
54666;BME280;40566;50.006;36.180;2023-03-13T22:44:32;100469.75;;;0.43;55.34
54666;BME280;40566;50.006;36.180;2023-03-13T22:49:33;100473.16;;;0.42;55.32
54666;BME280;40566;50.006;36.180;2023-03-13T22:54:33;100474.75;;;0.38;55.48
54666;BME280;40566;50.006;36.180;2023-03-13T22:59:34;100468.75;;;0.36;55.56
54666;BME280;40566;50.006;36.180;2023-03-13T23:04:34;100471.22;;;0.33;55.71
54666;BME280;40566;50.006;36.180;2023-03-13T23:09:35;100467.06;;;0.37;55.89
54666;BME280;40566;50.006;36.180;2023-03-13T23:14:36;100463.69;;;0.36;56.05
54666;BME280;40566;50.006;36.180;2023-03-13T23:19:36;100464.56;;;0.38;56.12
54666;BME280;40566;50.006;36.180;2023-03-13T23:24:37;100462.13;;;0.42;56.14
54666;BME280;40566;50.006;36.180;2023-03-13T23:29:38;100461.28;;;0.43;56.19
54666;BME280;40566;50.006;36.180;2023-03-13T23:34:38;100462.78;;;0.34;56.53
54666;BME280;40566;50.006;36.180;2023-03-13T23:39:39;100454.41;;;0.38;56.39
54666;BME280;40566;50.006;36.180;2023-03-13T23:44:40;100451.69;;;0.32;56.69
54666;BME280;40566;50.006;36.180;2023-03-13T23:49:40;100450.06;;;0.34;56.93
54666;BME280;40566;50.006;36.180;2023-03-13T23:54:41;100447.47;;;0.33;56.93
54666;BME280;40566;50.006;36.180;2023-03-13T23:59:41;100448.31;;;0.32;57.08
